X  Cerrar Datos meteorológicos de aviación METAR     EHKD De Kooy Airport
Temperatura
15°C Temperatura
14°C Punto de rocío
94% Humedad



Viento
2 M/S
5 MPH
8 KM/H
4 NUDO



140°
SE
Condiciones actuales

Niebla Niebla
Presión 1022.01 (hPa) - 30.18 (inHg)
Visibilidad 5.6 (milla) - 9 (km)
Aeropuerto
Código de aeropuerto EHKD

localidad: De Kooy Airport
Distancia: 34 (km)

Metar:
EHKD 180507Z AUTO 14004KT 9000 BR OVC210 15/14 Q1022 BLU NOSIG

Hora: 18-07-2024 07:07 CEST